Time;durP1;ratioP1;P1;durP2;ratioP2;P2;SDS_P1;SDS_P2;PMS_P1;PMS_P2;Temp;Humidity;BMP_temperature;BMP_pressure;BME280_temperature;BME280_humidity;BME280_pressure;Samples;Min_cycle;Max_cycle;Signal;HPM_P1;HPM_P2
2020/12/22 00:01:14;;;;;;;17.85;11.38;;;10.30;98.00;;;;;;4981725;28;20109;-81
2020/12/22 00:03:40;;;;;;;18.85;11.52;;;10.00;98.10;;;;;;4958438;28;20051;-83
2020/12/22 00:06:07;;;;;;;20.10;11.75;;;10.20;97.90;;;;;;4989797;28;20053;-82
2020/12/22 00:08:33;;;;;;;17.17;10.70;;;10.00;97.80;;;;;;4975824;28;20065;-83
2020/12/22 00:10:59;;;;;;;18.38;11.05;;;10.80;98.00;;;;;;4962899;28;20043;-83
2020/12/22 00:13:25;;;;;;;17.38;10.73;;;10.00;97.90;;;;;;4975860;28;20034;-83
2020/12/22 00:15:51;;;;;;;19.02;10.57;;;10.10;98.00;;;;;;4989263;28;20065;-83
2020/12/22 00:18:17;;;;;;;20.33;11.10;;;10.10;98.00;;;;;;4975874;28;20503;-82
2020/12/22 00:20:43;;;;;;;15.93;9.75;;;10.10;98.00;;;;;;4975691;28;20042;-82
2020/12/22 00:23:12;;;;;;;17.23;9.65;;;10.90;98.20;;;;;;4988276;28;20034;-83
2020/12/22 00:25:46;;;;;;;16.92;9.05;;;10.20;98.30;;;;;;4958638;28;20042;-83
2020/12/22 00:28:13;;;;;;;17.33;9.68;;;10.60;98.40;;;;;;4975547;28;20455;-83
2020/12/22 00:30:39;;;;;;;18.40;9.43;;;11.10;98.50;;;;;;4969579;28;20039;-83
2020/12/22 00:33:06;;;;;;;18.25;9.52;;;11.30;98.70;;;;;;4990271;28;20089;-83
2020/12/22 00:35:32;;;;;;;15.63;8.90;;;10.80;98.60;;;;;;4974413;28;20058;-82
2020/12/22 00:37:58;;;;;;;14.93;7.80;;;10.30;98.50;;;;;;4975350;28;20483;-83
2020/12/22 00:40:24;;;;;;;18.65;8.75;;;10.30;98.50;;;;;;4973626;28;20483;-83
2020/12/22 00:42:51;;;;;;;14.02;7.45;;;10.30;98.40;;;;;;4990334;28;20591;-83
2020/12/22 00:45:18;;;;;;;12.80;7.32;;;10.30;98.40;;;;;;4974143;28;20058;-83
2020/12/22 00:47:44;;;;;;;14.38;7.60;;;10.30;98.40;;;;;;4990092;28;20034;-83
2020/12/22 00:50:10;;;;;;;12.38;6.85;;;10.30;98.40;;;;;;4989495;28;20130;-82
2020/12/22 00:52:36;;;;;;;11.65;6.93;;;10.30;98.50;;;;;;4990125;28;20034;-82
2020/12/22 00:55:02;;;;;;;12.98;6.93;;;10.40;98.50;;;;;;4957720;28;20089;-82
2020/12/22 00:57:28;;;;;;;12.73;6.45;;;10.00;98.70;;;;;;4989956;28;20045;-82
2020/12/22 00:59:57;;;;;;;14.38;7.15;;;10.40;98.50;;;;;;4966452;28;20043;-81
2020/12/22 01:02:23;;;;;;;11.50;6.05;;;10.40;98.70;;;;;;4974474;28;20062;-81
2020/12/22 01:04:52;;;;;;;11.88;6.63;;;10.40;98.70;;;;;;4973745;28;20039;-81
2020/12/22 01:07:18;;;;;;;14.10;7.65;;;10.50;98.70;;;;;;4966132;28;20031;-81
2020/12/22 01:09:44;;;;;;;14.65;7.20;;;10.50;98.80;;;;;;4975001;28;20043;-82
2020/12/22 01:12:10;;;;;;;16.60;7.45;;;10.50;98.80;;;;;;4957368;28;20039;-77
2020/12/22 01:14:36;;;;;;;16.60;7.72;;;10.50;98.80;;;;;;4957463;28;20038;-77
2020/12/22 01:17:02;;;;;;;16.73;7.18;;;10.60;99.10;;;;;;4974344;28;20615;-77
2020/12/22 01:19:28;;;;;;;13.07;6.97;;;10.60;99.10;;;;;;4972750;28;20032;-78
2020/12/22 01:21:54;;;;;;;15.10;6.95;;;10.60;99.10;;;;;;4974469;28;20113;-78
2020/12/22 01:24:24;;;;;;;18.40;8.10;;;10.60;99.10;;;;;;4986958;28;20081;-79
2020/12/22 01:26:50;;;;;;;19.95;8.30;;;10.60;99.20;;;;;;4974596;28;20042;-80
2020/12/22 01:29:17;;;;;;;22.38;9.65;;;10.70;99.30;;;;;;4968112;28;20040;-79
2020/12/22 01:31:45;;;;;;;30.70;10.45;;;10.70;99.30;;;;;;4973869;28;20038;-80
2020/12/22 01:34:10;;;;;;;20.80;9.15;;;10.80;99.30;;;;;;4973352;28;20043;-80
2020/12/22 01:36:36;;;;;;;17.88;9.07;;;10.70;99.30;;;;;;4989209;28;20037;-78
2020/12/22 01:39:03;;;;;;;25.50;9.90;;;11.00;99.50;;;;;;4985154;28;20046;-78
2020/12/22 01:41:33;;;;;;;28.17;10.77;;;10.80;99.50;;;;;;4970127;28;20061;-78
2020/12/22 01:44:04;;;;;;;15.95;8.10;;;10.80;99.50;;;;;;4974358;28;20546;-78
2020/12/22 01:46:39;;;;;;;13.98;8.05;;;10.80;99.60;;;;;;4974047;28;20038;-78
2020/12/22 01:49:20;;;;;;;16.98;7.05;;;10.80;99.60;;;;;;4969846;28;20050;-78
2020/12/22 01:51:47;;;;;;;10.15;5.20;;;10.60;99.60;;;;;;4970431;28;20038;-78
2020/12/22 01:54:14;;;;;;;15.27;6.50;;;10.90;99.70;;;;;;4974192;28;20041;-79
2020/12/22 01:56:41;;;;;;;13.00;4.82;;;10.90;99.70;;;;;;4972792;28;20035;-79
2020/12/22 01:59:07;;;;;;;8.52;4.03;;;10.90;99.80;;;;;;4973951;28;20050;-79
2020/12/22 02:01:34;;;;;;;7.40;3.30;;;10.90;99.80;;;;;;4973020;28;20036;-79
2020/12/22 02:04:00;;;;;;;9.88;3.30;;;11.30;99.90;;;;;;4973854;28;20125;-79
2020/12/22 02:06:30;;;;;;;10.80;2.70;;;10.90;99.90;;;;;;4974046;28;20035;-78
2020/12/22 02:08:57;;;;;;;8.18;1.90;;;10.90;99.90;;;;;;4972226;28;20127;-78
2020/12/22 02:11:27;;;;;;;10.07;1.88;;;11.00;99.90;;;;;;4973972;28;20483;-79
2020/12/22 02:13:54;;;;;;;6.10;1.90;;;11.00;99.90;;;;;;4988876;28;20054;-78
2020/12/22 02:16:20;;;;;;;7.45;2.00;;;11.10;99.90;;;;;;4973875;28;20105;-79
2020/12/22 02:18:47;;;;;;;4.65;1.98;;;11.00;99.90;;;;;;4970234;28;20051;-79
2020/12/22 02:21:13;;;;;;;3.03;1.80;;;11.30;99.90;;;;;;4970880;28;20149;-79
2020/12/22 02:23:39;;;;;;;2.53;1.77;;;11.00;99.90;;;;;;4973893;28;20030;-78
2020/12/22 02:26:05;;;;;;;7.28;1.90;;;11.10;99.90;;;;;;4973808;28;20039;-79
2020/12/22 02:28:33;;;;;;;10.10;2.10;;;11.00;99.90;;;;;;4972289;28;20035;-78
2020/12/22 02:31:01;;;;;;;7.47;1.80;;;11.00;99.90;;;;;;4971645;28;20043;-79
2020/12/22 02:33:27;;;;;;;5.32;1.90;;;11.00;99.90;;;;;;4969771;28;20042;-77
2020/12/22 02:35:53;;;;;;;4.05;1.70;;;11.10;99.90;;;;;;4977953;28;20043;-77
2020/12/22 02:38:20;;;;;;;3.00;1.55;;;11.10;99.90;;;;;;4975975;28;20039;-77
2020/12/22 02:40:45;;;;;;;3.85;1.70;;;11.10;99.90;;;;;;4967750;28;20041;-78
2020/12/22 02:43:12;;;;;;;3.00;2.10;;;11.10;99.90;;;;;;4977469;28;20464;-77
2020/12/22 02:45:43;;;;;;;3.40;2.25;;;11.30;99.90;;;;;;4977708;28;20048;-78
2020/12/22 02:48:10;;;;;;;3.80;2.25;;;11.20;99.90;;;;;;4975461;28;20118;-79
2020/12/22 02:50:35;;;;;;;4.03;2.50;;;11.10;99.90;;;;;;4977524;28;20034;-78
2020/12/22 02:53:02;;;;;;;4.70;2.53;;;11.20;99.90;;;;;;4977440;28;20092;-78
2020/12/22 02:55:27;;;;;;;7.03;3.60;;;11.50;99.90;;;;;;4977393;28;20035;-78
2020/12/22 02:57:53;;;;;;;5.53;4.05;;;11.20;99.90;;;;;;4977377;28;20046;-79
2020/12/22 03:00:19;;;;;;;8.98;5.20;;;11.20;99.90;;;;;;4977119;28;20070;-79
2020/12/22 03:02:45;;;;;;;9.00;5.63;;;12.00;99.90;;;;;;4976886;28;20091;-79
2020/12/22 03:05:11;;;;;;;11.23;6.03;;;11.50;99.90;;;;;;4975801;28;20075;-77
2020/12/22 03:07:37;;;;;;;9.30;5.47;;;11.20;99.90;;;;;;4977091;28;20034;-76
2020/12/22 03:10:08;;;;;;;12.93;5.75;;;11.20;99.80;;;;;;4973959;28;20062;-76
2020/12/22 03:12:35;;;;;;;8.98;5.65;;;11.40;99.90;;;;;;4977203;28;20046;-76
2020/12/22 03:15:02;;;;;;;14.20;6.60;;;11.30;99.90;;;;;;4976853;28;20391;-77
2020/12/22 03:17:27;;;;;;;11.82;6.28;;;11.30;99.80;;;;;;4976973;28;20035;-77
2020/12/22 03:19:53;;;;;;;13.65;7.00;;;11.30;99.80;;;;;;4976342;28;20043;-77
2020/12/22 03:22:19;;;;;;;17.85;6.75;;;11.30;99.80;;;;;;4976950;28;20391;-77
2020/12/22 03:24:45;;;;;;;13.23;6.60;;;11.30;99.80;;;;;;4976789;28;20039;-77
2020/12/22 03:27:10;;;;;;;12.93;6.10;;;11.30;99.70;;;;;;4976583;28;20089;-77
2020/12/22 03:29:36;;;;;;;10.65;5.50;;;11.30;99.80;;;;;;4976446;28;20055;-77
2020/12/22 03:32:02;;;;;;;9.80;5.15;;;11.30;99.90;;;;;;4988430;28;20406;-76
2020/12/22 03:34:28;;;;;;;7.28;4.07;;;11.30;99.70;;;;;;4971332;28;20042;-77
2020/12/22 03:36:54;;;;;;;9.63;4.68;;;11.30;99.70;;;;;;4983224;28;20073;-76
2020/12/22 03:39:20;;;;;;;6.03;4.03;;;11.50;99.80;;;;;;4973795;28;20043;-76
2020/12/22 03:41:45;;;;;;;11.60;6.25;;;11.40;99.80;;;;;;4975195;28;20035;-76
2020/12/22 03:44:12;;;;;;;8.40;4.32;;;11.30;99.80;;;;;;4976507;28;20042;-76
2020/12/22 03:46:46;;;;;;;8.40;5.07;;;11.30;99.80;;;;;;4976428;28;20041;-76
2020/12/22 03:49:12;;;;;;;8.32;5.47;;;11.30;99.70;;;;;;4975801;28;20050;-76
2020/12/22 03:51:37;;;;;;;13.27;7.05;;;11.30;99.80;;;;;;4974917;28;20043;-77
2020/12/22 03:54:03;;;;;;;8.25;5.88;;;11.30;99.80;;;;;;4976354;28;20110;-77
2020/12/22 03:56:29;;;;;;;13.23;7.10;;;11.50;99.90;;;;;;4976550;28;20039;-77
2020/12/22 03:58:54;;;;;;;16.92;7.57;;;11.40;99.80;;;;;;4975618;28;20073;-77
2020/12/22 04:01:20;;;;;;;19.88;8.77;;;11.40;99.80;;;;;;4970670;28;20046;-77
2020/12/22 04:03:46;;;;;;;18.20;9.27;;;11.50;99.80;;;;;;4973519;28;20058;-77
2020/12/22 04:06:12;;;;;;;23.35;9.77;;;11.40;99.70;;;;;;4976246;28;20042;-77
2020/12/22 04:08:37;;;;;;;23.70;9.15;;;11.50;99.80;;;;;;4974199;28;20039;-77
2020/12/22 04:11:03;;;;;;;22.92;9.38;;;11.50;99.90;;;;;;4991033;28;20038;-78
2020/12/22 04:13:30;;;;;;;23.00;9.95;;;11.50;99.70;;;;;;4976106;28;20039;-78
2020/12/22 04:15:55;;;;;;;22.27;9.00;;;11.50;99.60;;;;;;4990779;28;20058;-78
2020/12/22 04:18:21;;;;;;;25.23;9.50;;;11.60;99.60;;;;;;4975312;28;20471;-78
2020/12/22 04:20:47;;;;;;;25.48;8.57;;;11.50;99.60;;;;;;4970065;28;20042;-77
2020/12/22 04:23:13;;;;;;;28.15;8.30;;;11.50;99.60;;;;;;4975836;28;20039;-78
2020/12/22 04:25:39;;;;;;;24.10;7.72;;;11.50;99.50;;;;;;4975723;28;20403;-78
2020/12/22 04:28:04;;;;;;;24.77;7.28;;;11.60;99.60;;;;;;4974578;28;20394;-78
2020/12/22 04:30:31;;;;;;;19.60;6.70;;;11.60;99.50;;;;;;4975034;28;20125;-78
2020/12/22 04:32:57;;;;;;;25.05;6.55;;;11.60;99.40;;;;;;4975465;28;20115;-79
2020/12/22 04:35:23;;;;;;;26.00;6.35;;;11.60;99.40;;;;;;4975590;28;20121;-79
2020/12/22 04:37:48;;;;;;;22.77;6.50;;;11.60;99.40;;;;;;4975474;28;20042;-79
2020/12/22 04:40:14;;;;;;;20.52;5.78;;;11.60;99.40;;;;;;4974664;28;20038;-74
2020/12/22 04:42:41;;;;;;;32.13;6.10;;;11.60;99.40;;;;;;4975584;28;20487;-73
2020/12/22 04:45:07;;;;;;;22.67;5.78;;;11.60;99.40;;;;;;4975379;28;20063;-74
2020/12/22 04:47:37;;;;;;;27.33;5.90;;;11.60;99.40;;;;;;4990401;28;20498;-74
2020/12/22 04:50:04;;;;;;;27.30;4.75;;;11.60;99.30;;;;;;4974212;28;20039;-73
2020/12/22 04:52:31;;;;;;;22.75;4.15;;;11.70;99.30;;;;;;4974962;28;20039;-74
2020/12/22 04:54:57;;;;;;;28.65;4.82;;;11.70;99.30;;;;;;5003889;28;20031;-74
2020/12/22 04:57:31;;;;;;;29.42;5.03;;;12.10;99.30;;;;;;4975226;28;20501;-74
2020/12/22 04:59:58;;;;;;;25.00;4.93;;;11.70;99.20;;;;;;4974366;28;20041;-74
2020/12/22 05:02:26;;;;;;;28.77;5.15;;;11.70;99.20;;;;;;4974987;28;20071;-74
2020/12/22 05:04:52;;;;;;;23.80;3.90;;;11.70;99.10;;;;;;4973706;28;20046;-74
2020/12/22 05:07:18;;;;;;;26.65;4.93;;;11.80;99.10;;;;;;4975106;28;20035;-74
2020/12/22 05:09:45;;;;;;;22.58;3.97;;;11.70;99.10;;;;;;4974412;28;20047;-74
2020/12/22 05:12:11;;;;;;;27.75;4.07;;;11.80;99.10;;;;;;4973742;28;20424;-74
2020/12/22 05:14:37;;;;;;;23.08;4.05;;;11.70;99.10;;;;;;4989765;28;20042;-74
2020/12/22 05:17:02;;;;;;;23.60;4.20;;;11.70;99.00;;;;;;4974681;28;20042;-74
2020/12/22 05:19:34;;;;;;;25.05;3.72;;;11.70;99.10;;;;;;4972853;28;20398;-74
2020/12/22 05:22:02;;;;;;;24.23;3.65;;;11.70;99.10;;;;;;4974691;28;20557;-74
2020/12/22 05:24:29;;;;;;;29.20;3.60;;;11.90;99.10;;;;;;4973377;28;20042;-74
2020/12/22 05:26:58;;;;;;;25.85;4.15;;;11.70;99.10;;;;;;4974604;28;20039;-74
2020/12/22 05:29:25;;;;;;;23.90;4.28;;;11.70;99.20;;;;;;4973712;28;20041;-74
2020/12/22 05:31:53;;;;;;;27.65;4.15;;;11.70;99.20;;;;;;4989127;28;20042;-74
2020/12/22 05:34:20;;;;;;;21.80;4.10;;;11.70;99.20;;;;;;4989330;28;20049;-74
2020/12/22 05:36:47;;;;;;;22.48;4.03;;;11.70;99.20;;;;;;4974478;28;20043;-74
2020/12/22 05:39:14;;;;;;;24.42;3.83;;;11.70;99.20;;;;;;4973663;28;20042;-74
2020/12/22 05:41:40;;;;;;;24.10;3.70;;;12.40;99.40;;;;;;4974425;28;20039;-74
2020/12/22 05:44:08;;;;;;;23.60;3.65;;;11.70;99.20;;;;;;4974227;28;20093;-74
2020/12/22 05:46:35;;;;;;;26.55;3.65;;;12.20;99.40;;;;;;4974308;28;20115;-74
2020/12/22 05:49:04;;;;;;;22.52;4.28;;;11.70;99.30;;;;;;4965125;28;20455;-73
2020/12/22 05:51:30;;;;;;;24.13;3.42;;;11.80;99.30;;;;;;4973759;28;20034;-74
2020/12/22 05:54:04;;;;;;;20.45;3.40;;;11.70;99.30;;;;;;4974236;28;20384;-73
2020/12/22 05:56:32;;;;;;;19.63;3.50;;;11.70;99.30;;;;;;4974060;28;20045;-72
2020/12/22 05:58:58;;;;;;;19.08;3.20;;;11.70;99.40;;;;;;4973228;28;20105;-73
2020/12/22 06:01:42;;;;;;;21.23;3.33;;;11.80;99.70;;;;;;4973752;28;20464;-73
2020/12/22 06:04:09;;;;;;;18.15;2.88;;;11.80;99.30;;;;;;4973948;28;20066;-75
2020/12/22 06:06:36;;;;;;;16.27;2.83;;;11.80;99.30;;;;;;4973705;28;20114;-76
2020/12/22 06:09:02;;;;;;;16.80;3.35;;;11.80;99.20;;;;;;4963099;28;20502;-75
2020/12/22 06:11:29;;;;;;;16.75;3.35;;;12.40;99.40;;;;;;4972758;28;20035;-74
2020/12/22 06:13:57;;;;;;;17.63;2.80;;;12.20;99.30;;;;;;4973778;28;20039;-74
2020/12/22 06:16:23;;;;;;;13.48;2.20;;;12.80;99.50;;;;;;4973862;28;20066;-75
2020/12/22 06:18:50;;;;;;;11.55;2.00;;;11.80;99.20;;;;;;4973010;28;20499;-74
2020/12/22 06:21:20;;;;;;;13.85;2.10;;;11.80;99.20;;;;;;4973787;28;20034;-74
2020/12/22 06:23:47;;;;;;;16.48;2.95;;;11.80;99.20;;;;;;4968684;28;20050;-74
2020/12/22 06:26:14;;;;;;;16.20;3.00;;;11.80;99.20;;;;;;4988531;28;20486;-74
2020/12/22 06:28:40;;;;;;;15.32;3.05;;;11.80;99.20;;;;;;4973088;28;20039;-74
2020/12/22 06:31:20;;;;;;;21.00;3.85;;;11.70;99.20;;;;;;4973628;28;20034;-73
2020/12/22 06:33:47;;;;;;;26.55;4.05;;;11.80;99.30;;;;;;4973728;28;20050;-73
2020/12/22 06:36:14;;;;;;;19.08;3.30;;;11.80;99.30;;;;;;4988454;28;20031;-73
2020/12/22 06:38:56;;;;;;;22.75;3.47;;;11.80;99.20;;;;;;4968866;28;20094;-73
2020/12/22 06:41:33;;;;;;;27.35;4.10;;;11.80;99.20;;;;;;4967747;28;20035;-73
2020/12/22 06:44:27;;;;;;;26.35;4.35;;;11.80;99.20;;;;;;4965011;28;20039;-73
2020/12/22 06:46:57;;;;;;;27.38;3.83;;;11.80;99.10;;;;;;4973548;28;20087;-73
2020/12/22 06:49:48;;;;;;;26.80;3.40;;;11.80;99.10;;;;;;4973286;28;20039;-73
2020/12/22 06:52:35;;;;;;;30.55;4.20;;;11.80;99.00;;;;;;4963317;28;20043;-73
2020/12/22 06:55:06;;;;;;;29.92;4.03;;;11.80;99.00;;;;;;4973510;28;20491;-74
2020/12/22 06:57:48;;;;;;;21.48;3.55;;;11.90;98.90;;;;;;4964412;28;20039;-74
2020/12/22 07:00:29;;;;;;;24.38;4.15;;;11.80;98.90;;;;;;4972261;28;20035;-74
2020/12/22 07:03:10;;;;;;;24.77;4.10;;;11.80;98.90;;;;;;4984697;28;20057;-74
2020/12/22 07:05:40;;;;;;;31.00;4.30;;;11.80;98.80;;;;;;4961172;28;20042;-74
2020/12/22 07:08:06;;;;;;;27.60;3.63;;;11.80;98.80;;;;;;4973072;28;20046;-74
2020/12/22 07:10:37;;;;;;;22.50;4.25;;;11.80;98.80;;;;;;4973350;28;20090;-74
2020/12/22 07:13:07;;;;;;;23.75;3.88;;;11.80;99.10;;;;;;4973499;28;20045;-74
2020/12/22 07:15:34;;;;;;;27.15;4.07;;;11.80;98.70;;;;;;4976540;28;20123;-74
2020/12/22 07:18:12;;;;;;;32.38;4.47;;;11.80;98.80;;;;;;4976348;28;20129;-72
2020/12/22 07:20:40;;;;;;;34.55;5.03;;;11.80;98.70;;;;;;4976839;28;20039;-75
2020/12/22 07:23:06;;;;;;;33.65;4.00;;;11.80;98.70;;;;;;4992035;28;20038;-75
2020/12/22 07:25:32;;;;;;;30.80;4.07;;;11.80;98.70;;;;;;4991850;28;20046;-73
2020/12/22 07:28:02;;;;;;;26.65;3.92;;;11.80;98.70;;;;;;4974968;28;20434;-75
2020/12/22 07:30:27;;;;;;;33.45;4.28;;;11.70;98.70;;;;;;4991861;28;20043;-75
2020/12/22 07:32:58;;;;;;;21.15;3.40;;;12.20;98.80;;;;;;4976869;28;20037;-75
2020/12/22 07:35:24;;;;;;;26.92;4.13;;;11.70;98.70;;;;;;4973044;28;20038;-75
2020/12/22 07:37:50;;;;;;;23.15;3.50;;;11.70;98.70;;;;;;4973013;28;20047;-75
2020/12/22 07:40:16;;;;;;;22.73;3.00;;;11.90;98.80;;;;;;4974610;28;20113;-75
2020/12/22 07:42:43;;;;;;;23.08;3.58;;;11.70;98.80;;;;;;4971471;28;20094;-75
2020/12/22 07:45:09;;;;;;;27.40;3.45;;;11.70;98.80;;;;;;4975470;28;20047;-73
2020/12/22 07:47:35;;;;;;;23.48;3.25;;;12.00;98.90;;;;;;4975402;28;20109;-74
2020/12/22 07:50:18;;;;;;;22.08;2.90;;;11.70;98.90;;;;;;4976440;28;20031;-73
2020/12/22 07:52:44;;;;;;;28.77;3.67;;;11.70;98.90;;;;;;4990712;28;20053;-73
2020/12/22 07:55:09;;;;;;;19.95;3.20;;;11.70;98.90;;;;;;4976091;28;20109;-73
2020/12/22 07:57:39;;;;;;;22.08;3.45;;;11.70;98.90;;;;;;4991199;28;20038;-73
2020/12/22 08:00:11;;;;;;;22.25;3.35;;;11.70;98.90;;;;;;4975098;28;20460;-73
2020/12/22 08:02:36;;;;;;;15.63;3.10;;;11.60;98.50;;;;;;4975191;28;20109;-73
2020/12/22 08:05:12;;;;;;;23.85;3.83;;;11.60;98.50;;;;;;4975921;28;20058;-73
2020/12/22 08:07:42;;;;;;;22.90;3.60;;;11.60;98.20;;;;;;4974581;28;20399;-71
2020/12/22 08:10:15;;;;;;;17.85;3.60;;;11.60;98.10;;;;;;4965572;28;20059;-73
2020/12/22 08:12:42;;;;;;;29.55;4.80;;;11.80;98.20;;;;;;4970342;28;20218;-75
2020/12/22 08:15:12;;;;;;;27.17;4.90;;;11.50;97.80;;;;;;4972005;28;20142;-76
2020/12/22 08:17:43;;;;;;;24.75;5.68;;;11.40;97.60;;;;;;4975864;28;20054;-75
2020/12/22 08:20:13;;;;;;;21.65;5.10;;;11.40;97.40;;;;;;4976391;28;20066;-75
2020/12/22 08:22:42;;;;;;;19.38;4.18;;;11.30;97.30;;;;;;4990292;28;20056;-75
2020/12/22 08:25:08;;;;;;;12.98;3.08;;;11.20;97.20;;;;;;4975080;28;20043;-73
2020/12/22 08:27:34;;;;;;;13.88;2.55;;;11.10;97.10;;;;;;4969274;28;20038;-73
2020/12/22 08:30:00;;;;;;;9.50;2.55;;;11.00;97.00;;;;;;4990753;28;20034;-72
2020/12/22 08:32:27;;;;;;;5.38;2.30;;;10.90;97.10;;;;;;4975474;28;20046;-73
2020/12/22 08:34:53;;;;;;;7.15;2.40;;;10.80;97.20;;;;;;4975607;28;20035;-73
2020/12/22 08:37:26;;;;;;;6.00;2.30;;;10.70;96.90;;;;;;4974901;28;20034;-73
2020/12/22 08:39:53;;;;;;;7.35;2.65;;;10.80;97.20;;;;;;4974328;28;20051;-73
2020/12/22 08:42:20;;;;;;;5.15;2.20;;;10.60;97.10;;;;;;4975420;28;20495;-73
2020/12/22 08:44:53;;;;;;;5.18;2.58;;;10.50;96.80;;;;;;4975279;28;20436;-73
2020/12/22 08:47:20;;;;;;;6.95;3.05;;;10.50;96.60;;;;;;4968160;28;20044;-74
2020/12/22 08:49:47;;;;;;;6.50;4.00;;;10.40;96.30;;;;;;4972252;28;20133;-73
2020/12/22 08:52:16;;;;;;;5.68;4.50;;;10.30;96.50;;;;;;4967686;28;20519;-74
2020/12/22 08:55:01;;;;;;;10.65;5.25;;;10.20;96.50;;;;;;4975091;28;20089;-73
2020/12/22 08:57:30;;;;;;;13.43;5.97;;;10.40;96.40;;;;;;4974452;28;20035;-74
2020/12/22 08:59:55;;;;;;;16.75;7.13;;;10.20;96.50;;;;;;4974867;28;20045;-73
2020/12/22 09:02:27;;;;;;;12.95;6.88;;;10.10;96.30;;;;;;4973837;28;20042;-73
2020/12/22 09:04:52;;;;;;;15.02;7.57;;;10.10;96.40;;;;;;4974628;28;20537;-75
2020/12/22 09:07:19;;;;;;;16.13;7.50;;;10.30;96.70;;;;;;4967054;28;20035;-76
2020/12/22 09:09:44;;;;;;;19.35;7.65;;;10.00;96.90;;;;;;4974921;28;20039;-76
2020/12/22 09:12:11;;;;;;;15.05;6.35;;;10.00;96.60;;;;;;4989777;28;20039;-76
2020/12/22 09:14:44;;;;;;;16.65;7.00;;;9.90;96.50;;;;;;4970370;28;20035;-75
2020/12/22 09:17:11;;;;;;;12.55;7.53;;;9.90;96.50;;;;;;4974052;28;20476;-76
2020/12/22 09:19:48;;;;;;;15.50;6.45;;;9.90;96.20;;;;;;4971098;28;20483;-76
2020/12/22 09:22:25;;;;;;;17.23;6.93;;;9.90;96.20;;;;;;4969137;28;20098;-76
2020/12/22 09:24:59;;;;;;;21.05;7.30;;;9.90;96.10;;;;;;4965482;28;20116;-75
2020/12/22 09:27:31;;;;;;;21.92;6.80;;;9.90;96.50;;;;;;4974613;28;20049;-75
2020/12/22 09:29:57;;;;;;;14.55;5.97;;;9.90;96.30;;;;;;4989611;28;20042;-74
2020/12/22 09:32:23;;;;;;;17.10;5.32;;;9.90;96.20;;;;;;4974558;28;20109;-77
2020/12/22 09:34:49;;;;;;;19.65;6.53;;;9.90;96.00;;;;;;4964215;28;20475;-75
2020/12/22 09:37:16;;;;;;;19.77;5.13;;;9.90;96.20;;;;;;4988960;28;20041;-74
2020/12/22 09:39:42;;;;;;;12.98;4.65;;;9.90;95.80;;;;;;4974193;28;20495;-75
2020/12/22 09:42:12;;;;;;;16.27;4.78;;;9.90;95.90;;;;;;4974358;28;20521;-80
2020/12/22 09:44:37;;;;;;;16.75;4.70;;;9.90;95.90;;;;;;4974240;28;20034;-80
2020/12/22 09:47:04;;;;;;;20.58;5.50;;;9.90;95.80;;;;;;4990467;28;20373;-79
2020/12/22 09:49:30;;;;;;;19.90;4.65;;;9.90;96.00;;;;;;4968610;28;20480;-74
2020/12/22 09:51:56;;;;;;;15.55;4.53;;;10.30;96.10;;;;;;4988750;28;20038;-74
2020/12/22 09:54:22;;;;;;;14.88;3.92;;;9.90;95.90;;;;;;4972861;28;20035;-75
2020/12/22 09:56:48;;;;;;;17.15;4.43;;;10.00;95.70;;;;;;4973911;28;20063;-74
2020/12/22 09:59:15;;;;;;;17.13;4.85;;;10.00;95.80;;;;;;4973948;28;20093;-75
2020/12/22 10:01:41;;;;;;;15.98;4.22;;;9.90;95.90;;;;;;4973830;28;20039;-73
2020/12/22 10:04:08;;;;;;;10.18;3.28;;;9.90;95.60;;;;;;4971564;28;20185;-74
2020/12/22 10:06:33;;;;;;;19.55;3.38;;;9.90;95.40;;;;;;4971975;28;20042;-74
2020/12/22 10:09:03;;;;;;;9.57;2.72;;;9.90;95.40;;;;;;4973951;28;20502;-74
2020/12/22 10:11:32;;;;;;;12.55;2.85;;;9.90;95.30;;;;;;4974158;28;20050;-74
2020/12/22 10:13:57;;;;;;;15.25;2.97;;;9.90;95.60;;;;;;4974092;28;20039;-73
2020/12/22 10:16:26;;;;;;;13.05;3.10;;;10.00;95.60;;;;;;4974005;28;20034;-73
2020/12/22 10:18:51;;;;;;;14.52;3.13;;;10.00;95.70;;;;;;4973807;28;20125;-73
2020/12/22 10:21:19;;;;;;;15.95;3.25;;;10.10;95.30;;;;;;4973976;28;20118;-73
2020/12/22 10:23:47;;;;;;;16.27;4.10;;;10.00;95.60;;;;;;4973915;28;20035;-73
2020/12/22 10:26:15;;;;;;;14.02;3.63;;;10.00;95.50;;;;;;4972340;28;20035;-73
2020/12/22 10:28:42;;;;;;;16.63;3.50;;;10.00;95.60;;;;;;4969664;28;20031;-74
2020/12/22 10:31:16;;;;;;;16.42;2.90;;;10.00;95.60;;;;;;4973544;28;20035;-74
2020/12/22 10:33:42;;;;;;;10.60;3.00;;;10.00;95.70;;;;;;4973863;28;20065;-74
2020/12/22 10:36:13;;;;;;;12.15;2.40;;;10.00;95.90;;;;;;4972383;28;20495;-74
2020/12/22 10:38:39;;;;;;;10.90;2.00;;;9.90;96.00;;;;;;4973712;28;20069;-74
2020/12/22 10:41:05;;;;;;;10.75;1.60;;;9.90;95.90;;;;;;4972702;28;20066;-74
2020/12/22 10:43:31;;;;;;;13.07;2.00;;;9.80;95.70;;;;;;4988661;28;20364;-74
2020/12/22 10:45:58;;;;;;;13.48;1.75;;;9.70;96.10;;;;;;4973786;28;20045;-74
2020/12/22 10:48:24;;;;;;;8.98;2.08;;;9.70;96.20;;;;;;4956232;28;20046;-74
2020/12/22 10:50:50;;;;;;;11.98;2.13;;;9.90;96.50;;;;;;4977570;28;20085;-75
2020/12/22 10:53:16;;;;;;;12.95;2.45;;;9.70;96.20;;;;;;4992207;28;20059;-75
2020/12/22 10:55:42;;;;;;;11.73;2.10;;;9.70;96.20;;;;;;4992663;28;20380;-77
2020/12/22 10:58:08;;;;;;;19.23;2.25;;;9.70;96.40;;;;;;4977407;28;20039;-75
2020/12/22 11:00:35;;;;;;;11.32;1.63;;;9.80;96.50;;;;;;4977415;28;20395;-77
2020/12/22 11:03:02;;;;;;;15.90;2.65;;;9.70;96.50;;;;;;4977302;28;20034;-75
2020/12/22 11:08:13;;;;;;;18.40;2.15;;;9.70;96.70;;;;;;4977037;28;20422;-74
2020/12/22 11:10:39;;;;;;;14.10;2.40;;;9.70;96.70;;;;;;4992047;28;20038;-75
2020/12/22 11:13:05;;;;;;;15.75;2.30;;;10.80;97.10;;;;;;4974283;28;20115;-76
2020/12/22 11:15:34;;;;;;;11.05;2.17;;;9.80;97.00;;;;;;4976669;28;20054;-80
2020/12/22 11:18:06;;;;;;;14.50;2.45;;;10.40;96.70;;;;;;4976279;28;20046;-80
2020/12/22 11:20:32;;;;;;;16.50;2.45;;;9.60;96.60;;;;;;4976881;28;20137;-78
2020/12/22 11:22:57;;;;;;;17.65;2.67;;;9.80;96.60;;;;;;4991688;28;20170;-73
2020/12/22 11:25:31;;;;;;;17.77;2.97;;;10.60;96.80;;;;;;4987813;28;20651;-75
2020/12/22 11:28:08;;;;;;;12.43;2.40;;;9.70;96.80;;;;;;4962101;28;20538;-77
2020/12/22 11:30:34;;;;;;;19.63;2.42;;;9.70;96.90;;;;;;4975315;28;20042;-73
2020/12/22 11:33:04;;;;;;;25.73;3.33;;;9.60;96.80;;;;;;4976583;28;20395;-76
2020/12/22 11:35:30;;;;;;;19.05;2.70;;;9.70;96.70;;;;;;4988127;28;20066;-77
2020/12/22 11:37:56;;;;;;;20.02;3.20;;;9.70;96.70;;;;;;4965797;28;20419;-78
2020/12/22 11:40:23;;;;;;;13.23;2.53;;;9.70;96.70;;;;;;4981843;28;20038;-81
2020/12/22 11:42:48;;;;;;;15.82;2.47;;;9.70;96.80;;;;;;4968523;28;20113;-76
2020/12/22 11:45:15;;;;;;;19.48;2.70;;;9.70;96.20;;;;;;4975477;28;20043;-73
2020/12/22 11:47:40;;;;;;;17.23;2.22;;;10.30;95.60;;;;;;4961099;28;20046;-74
2020/12/22 11:50:06;;;;;;;21.08;2.40;;;9.80;95.50;;;;;;4957168;28;20050;-74
2020/12/22 11:52:32;;;;;;;12.57;2.05;;;9.60;95.60;;;;;;4987475;28;20105;-76
2020/12/22 11:54:58;;;;;;;13.18;2.20;;;9.60;95.80;;;;;;4990423;28;20073;-76
2020/12/22 11:57:24;;;;;;;20.23;3.00;;;9.60;95.80;;;;;;4975007;28;20483;-73
2020/12/22 11:59:50;;;;;;;19.27;2.47;;;9.60;95.80;;;;;;4975204;28;20074;-75
2020/12/22 12:02:16;;;;;;;18.55;2.55;;;9.60;95.80;;;;;;4991340;28;20574;-75
2020/12/22 12:04:41;;;;;;;18.48;2.33;;;9.60;95.90;;;;;;4990950;28;20054;-75
2020/12/22 12:07:07;;;;;;;15.23;2.53;;;9.80;95.90;;;;;;4975000;28;20035;-75
2020/12/22 12:09:33;;;;;;;15.48;2.40;;;9.70;95.70;;;;;;4991021;28;20042;-75
2020/12/22 12:12:02;;;;;;;12.23;1.92;;;9.70;96.00;;;;;;4976035;28;20038;-75
2020/12/22 12:14:28;;;;;;;13.38;2.15;;;9.70;94.70;;;;;;4976107;28;20081;-75
2020/12/22 12:16:53;;;;;;;15.63;3.38;;;9.70;95.00;;;;;;4975818;28;20067;-75
2020/12/22 12:19:19;;;;;;;12.13;2.10;;;9.70;94.90;;;;;;4975828;28;20595;-75
2020/12/22 12:21:48;;;;;;;10.98;2.03;;;9.70;94.80;;;;;;4990814;28;20042;-75
2020/12/22 12:24:17;;;;;;;15.68;2.42;;;9.70;94.50;;;;;;4975878;28;20395;-75
2020/12/22 12:26:42;;;;;;;16.95;2.30;;;9.70;94.50;;;;;;4990805;28;20046;-75
2020/12/22 12:29:08;;;;;;;14.88;1.98;;;9.70;94.40;;;;;;4975535;28;20031;-75
2020/12/22 12:31:34;;;;;;;14.13;2.17;;;9.70;94.10;;;;;;4975645;28;20082;-75
2020/12/22 12:34:01;;;;;;;8.10;1.90;;;10.30;94.60;;;;;;4975598;28;20037;-75
2020/12/22 12:36:27;;;;;;;20.90;2.42;;;10.20;94.70;;;;;;4990483;28;20467;-75
2020/12/22 12:38:53;;;;;;;18.60;3.28;;;9.70;93.80;;;;;;4975631;28;20494;-74
2020/12/22 12:41:20;;;;;;;19.38;3.33;;;9.60;93.80;;;;;;4974148;28;20488;-74
2020/12/22 12:43:46;;;;;;;15.45;3.03;;;9.60;93.90;;;;;;4990529;28;20042;-75
2020/12/22 12:46:13;;;;;;;14.13;3.20;;;9.60;94.30;;;;;;4990280;28;20153;-75